sensor_id;sensor_type;location;lat;lon;timestamp;P1;durP1;ratioP1;P2;durP2;ratioP2
15159;SDS011;7680;48.800;9.680;2024-03-17T00:02:28;10.47;;;8.67;;
15159;SDS011;7680;48.800;9.680;2024-03-17T00:07:30;65.13;;;10.97;;
15159;SDS011;7680;48.800;9.680;2024-03-17T00:12:34;9.87;;;7.60;;
15159;SDS011;7680;48.800;9.680;2024-03-17T00:17:36;37.97;;;8.60;;
15159;SDS011;7680;48.800;9.680;2024-03-17T00:22:39;9.95;;;8.82;;
15159;SDS011;7680;48.800;9.680;2024-03-17T00:27:43;11.17;;;7.20;;
15159;SDS011;7680;48.800;9.680;2024-03-17T00:32:48;7.97;;;7.17;;
15159;SDS011;7680;48.800;9.680;2024-03-17T00:37:50;17.40;;;8.30;;
15159;SDS011;7680;48.800;9.680;2024-03-17T00:42:55;13.73;;;8.57;;
15159;SDS011;7680;48.800;9.680;2024-03-17T00:47:57;36.57;;;9.03;;
15159;SDS011;7680;48.800;9.680;2024-03-17T00:52:59;11.37;;;7.93;;
15159;SDS011;7680;48.800;9.680;2024-03-17T00:58:04;38.77;;;8.60;;
15159;SDS011;7680;48.800;9.680;2024-03-17T01:03:07;42.47;;;7.63;;
15159;SDS011;7680;48.800;9.680;2024-03-17T01:08:09;11.23;;;6.90;;
15159;SDS011;7680;48.800;9.680;2024-03-17T01:13:13;7.87;;;7.10;;
15159;SDS011;7680;48.800;9.680;2024-03-17T01:18:15;11.87;;;7.40;;
15159;SDS011;7680;48.800;9.680;2024-03-17T01:23:17;8.60;;;6.27;;
15159;SDS011;7680;48.800;9.680;2024-03-17T01:28:21;18.20;;;7.33;;
15159;SDS011;7680;48.800;9.680;2024-03-17T01:33:23;18.20;;;7.23;;
15159;SDS011;7680;48.800;9.680;2024-03-17T01:38:25;8.47;;;7.00;;
15159;SDS011;7680;48.800;9.680;2024-03-17T01:43:29;35.30;;;8.73;;
15159;SDS011;7680;48.800;9.680;2024-03-17T01:48:31;9.80;;;6.53;;
15159;SDS011;7680;48.800;9.680;2024-03-17T01:53:33;14.63;;;7.77;;
15159;SDS011;7680;48.800;9.680;2024-03-17T01:58:38;11.63;;;6.73;;
15159;SDS011;7680;48.800;9.680;2024-03-17T02:03:40;15.10;;;7.97;;
15159;SDS011;7680;48.800;9.680;2024-03-17T02:08:46;19.53;;;7.93;;
15159;SDS011;7680;48.800;9.680;2024-03-17T02:13:50;10.20;;;7.37;;
15159;SDS011;7680;48.800;9.680;2024-03-17T02:18:53;12.20;;;7.70;;
15159;SDS011;7680;48.800;9.680;2024-03-17T02:23:57;11.20;;;7.90;;
15159;SDS011;7680;48.800;9.680;2024-03-17T02:29:00;8.73;;;7.83;;
15159;SDS011;7680;48.800;9.680;2024-03-17T02:34:02;9.50;;;7.73;;
15159;SDS011;7680;48.800;9.680;2024-03-17T02:39:05;8.90;;;7.50;;
15159;SDS011;7680;48.800;9.680;2024-03-17T02:44:25;8.63;;;7.83;;
15159;SDS011;7680;48.800;9.680;2024-03-17T02:49:28;9.30;;;8.07;;
15159;SDS011;7680;48.800;9.680;2024-03-17T02:54:37;9.33;;;8.47;;
15159;SDS011;7680;48.800;9.680;2024-03-17T02:59:40;8.37;;;7.67;;
15159;SDS011;7680;48.800;9.680;2024-03-17T03:04:42;8.73;;;7.93;;
15159;SDS011;7680;48.800;9.680;2024-03-17T03:09:45;8.37;;;7.60;;
15159;SDS011;7680;48.800;9.680;2024-03-17T03:14:48;8.07;;;7.37;;
15159;SDS011;7680;48.800;9.680;2024-03-17T03:19:50;9.07;;;8.17;;
15159;SDS011;7680;48.800;9.680;2024-03-17T03:24:53;8.60;;;7.80;;
15159;SDS011;7680;48.800;9.680;2024-03-17T03:29:56;8.50;;;7.10;;
15159;SDS011;7680;48.800;9.680;2024-03-17T03:35:00;8.90;;;8.00;;
15159;SDS011;7680;48.800;9.680;2024-03-17T03:40:04;8.73;;;7.93;;
15159;SDS011;7680;48.800;9.680;2024-03-17T03:45:16;9.43;;;8.53;;
15159;SDS011;7680;48.800;9.680;2024-03-17T03:50:19;9.07;;;8.17;;
15159;SDS011;7680;48.800;9.680;2024-03-17T03:55:24;10.17;;;8.13;;
15159;SDS011;7680;48.800;9.680;2024-03-17T04:00:26;10.00;;;8.87;;
15159;SDS011;7680;48.800;9.680;2024-03-17T04:05:31;10.13;;;9.10;;
15159;SDS011;7680;48.800;9.680;2024-03-17T04:10:35;10.23;;;9.33;;
15159;SDS011;7680;48.800;9.680;2024-03-17T04:15:38;10.33;;;9.03;;
15159;SDS011;7680;48.800;9.680;2024-03-17T04:20:40;11.03;;;9.83;;
15159;SDS011;7680;48.800;9.680;2024-03-17T04:25:44;10.70;;;9.60;;
15159;SDS011;7680;48.800;9.680;2024-03-17T04:30:46;11.23;;;9.50;;
15159;SDS011;7680;48.800;9.680;2024-03-17T04:35:48;10.40;;;9.40;;
15159;SDS011;7680;48.800;9.680;2024-03-17T04:40:51;10.23;;;9.13;;
15159;SDS011;7680;48.800;9.680;2024-03-17T04:46:00;9.03;;;8.13;;
15159;SDS011;7680;48.800;9.680;2024-03-17T04:51:04;10.17;;;9.17;;
15159;SDS011;7680;48.800;9.680;2024-03-17T04:56:08;10.33;;;9.33;;
15159;SDS011;7680;48.800;9.680;2024-03-17T05:01:10;9.70;;;8.70;;
15159;SDS011;7680;48.800;9.680;2024-03-17T05:06:13;8.97;;;8.17;;
15159;SDS011;7680;48.800;9.680;2024-03-17T05:11:16;9.63;;;8.67;;
15159;SDS011;7680;48.800;9.680;2024-03-17T05:16:20;8.43;;;7.63;;
15159;SDS011;7680;48.800;9.680;2024-03-17T05:21:24;9.13;;;7.93;;
15159;SDS011;7680;48.800;9.680;2024-03-17T05:26:31;9.37;;;8.23;;
15159;SDS011;7680;48.800;9.680;2024-03-17T05:31:33;8.73;;;7.90;;
15159;SDS011;7680;48.800;9.680;2024-03-17T05:36:35;9.20;;;8.30;;
15159;SDS011;7680;48.800;9.680;2024-03-17T05:41:39;8.90;;;7.93;;
15159;SDS011;7680;48.800;9.680;2024-03-17T05:46:44;9.17;;;7.93;;
15159;SDS011;7680;48.800;9.680;2024-03-17T05:51:46;8.90;;;8.00;;
15159;SDS011;7680;48.800;9.680;2024-03-17T05:56:49;9.20;;;8.20;;
15159;SDS011;7680;48.800;9.680;2024-03-17T06:01:51;7.83;;;7.13;;
15159;SDS011;7680;48.800;9.680;2024-03-17T06:06:53;17.40;;;13.87;;
15159;SDS011;7680;48.800;9.680;2024-03-17T06:11:57;8.40;;;7.50;;
15159;SDS011;7680;48.800;9.680;2024-03-17T06:16:59;7.50;;;6.77;;
15159;SDS011;7680;48.800;9.680;2024-03-17T06:22:01;7.90;;;7.20;;
15159;SDS011;7680;48.800;9.680;2024-03-17T06:27:07;7.70;;;7.00;;
15159;SDS011;7680;48.800;9.680;2024-03-17T06:32:09;9.17;;;8.27;;
15159;SDS011;7680;48.800;9.680;2024-03-17T06:37:11;8.57;;;7.77;;
15159;SDS011;7680;48.800;9.680;2024-03-17T06:42:14;9.30;;;8.20;;
15159;SDS011;7680;48.800;9.680;2024-03-17T06:47:17;9.13;;;8.27;;
15159;SDS011;7680;48.800;9.680;2024-03-17T06:52:19;10.80;;;9.80;;
15159;SDS011;7680;48.800;9.680;2024-03-17T06:57:22;8.48;;;7.68;;
15159;SDS011;7680;48.800;9.680;2024-03-17T07:02:24;6.57;;;6.00;;
15159;SDS011;7680;48.800;9.680;2024-03-17T07:07:27;7.13;;;6.53;;
15159;SDS011;7680;48.800;9.680;2024-03-17T07:12:31;7.95;;;7.25;;
15159;SDS011;7680;48.800;9.680;2024-03-17T07:17:33;7.03;;;6.43;;
15159;SDS011;7680;48.800;9.680;2024-03-17T07:22:35;7.43;;;6.82;;
15159;SDS011;7680;48.800;9.680;2024-03-17T07:27:39;7.38;;;6.78;;
15159;SDS011;7680;48.800;9.680;2024-03-17T07:32:41;8.15;;;7.43;;
15159;SDS011;7680;48.800;9.680;2024-03-17T07:37:43;7.78;;;7.07;;
15159;SDS011;7680;48.800;9.680;2024-03-17T07:42:46;8.23;;;7.53;;
15159;SDS011;7680;48.800;9.680;2024-03-17T07:47:50;8.25;;;7.53;;
15159;SDS011;7680;48.800;9.680;2024-03-17T07:52:52;7.82;;;7.00;;
15159;SDS011;7680;48.800;9.680;2024-03-17T07:57:56;7.95;;;7.20;;
15159;SDS011;7680;48.800;9.680;2024-03-17T08:02:58;27.20;;;23.67;;
15159;SDS011;7680;48.800;9.680;2024-03-17T08:08:00;27.73;;;25.05;;
15159;SDS011;7680;48.800;9.680;2024-03-17T08:13:04;7.78;;;7.07;;
15159;SDS011;7680;48.800;9.680;2024-03-17T08:18:09;7.50;;;6.88;;
15159;SDS011;7680;48.800;9.680;2024-03-17T08:23:11;7.43;;;6.82;;
15159;SDS011;7680;48.800;9.680;2024-03-17T08:28:15;6.80;;;6.28;;
15159;SDS011;7680;48.800;9.680;2024-03-17T08:33:17;6.10;;;5.60;;
15159;SDS011;7680;48.800;9.680;2024-03-17T08:38:20;6.47;;;5.88;;
15159;SDS011;7680;48.800;9.680;2024-03-17T08:43:24;6.53;;;6.03;;
15159;SDS011;7680;48.800;9.680;2024-03-17T08:48:27;6.43;;;5.93;;
15159;SDS011;7680;48.800;9.680;2024-03-17T08:53:30;7.03;;;6.43;;
15159;SDS011;7680;48.800;9.680;2024-03-17T08:58:35;6.07;;;5.57;;
15159;SDS011;7680;48.800;9.680;2024-03-17T09:03:37;6.30;;;5.68;;
15159;SDS011;7680;48.800;9.680;2024-03-17T09:08:40;5.63;;;5.13;;
15159;SDS011;7680;48.800;9.680;2024-03-17T09:13:43;5.25;;;4.85;;
15159;SDS011;7680;48.800;9.680;2024-03-17T09:18:46;6.15;;;5.55;;
15159;SDS011;7680;48.800;9.680;2024-03-17T09:23:49;6.28;;;5.60;;
15159;SDS011;7680;48.800;9.680;2024-03-17T09:28:52;5.78;;;5.28;;
15159;SDS011;7680;48.800;9.680;2024-03-17T09:33:54;5.38;;;4.88;;
15159;SDS011;7680;48.800;9.680;2024-03-17T09:38:57;4.97;;;4.47;;
15159;SDS011;7680;48.800;9.680;2024-03-17T09:44:02;5.13;;;4.55;;
15159;SDS011;7680;48.800;9.680;2024-03-17T09:49:13;5.40;;;5.00;;
15159;SDS011;7680;48.800;9.680;2024-03-17T09:54:17;5.55;;;5.05;;
15159;SDS011;7680;48.800;9.680;2024-03-17T09:59:21;4.70;;;4.25;;
15159;SDS011;7680;48.800;9.680;2024-03-17T10:04:31;4.53;;;4.22;;
15159;SDS011;7680;48.800;9.680;2024-03-17T10:09:34;4.63;;;4.20;;
15159;SDS011;7680;48.800;9.680;2024-03-17T10:14:37;5.10;;;4.75;;
15159;SDS011;7680;48.800;9.680;2024-03-17T10:19:40;4.47;;;4.13;;
15159;SDS011;7680;48.800;9.680;2024-03-17T10:24:42;4.63;;;4.22;;
15159;SDS011;7680;48.800;9.680;2024-03-17T10:29:46;4.43;;;4.03;;
15159;SDS011;7680;48.800;9.680;2024-03-17T10:34:48;4.78;;;4.38;;
15159;SDS011;7680;48.800;9.680;2024-03-17T10:39:51;5.97;;;5.47;;
15159;SDS011;7680;48.800;9.680;2024-03-17T10:44:56;4.43;;;4.03;;
15159;SDS011;7680;48.800;9.680;2024-03-17T10:49:59;4.40;;;4.10;;
15159;SDS011;7680;48.800;9.680;2024-03-17T10:55:06;4.68;;;4.28;;
15159;SDS011;7680;48.800;9.680;2024-03-17T11:00:12;5.38;;;4.03;;
15159;SDS011;7680;48.800;9.680;2024-03-17T11:05:18;4.28;;;3.88;;
15159;SDS011;7680;48.800;9.680;2024-03-17T11:10:23;4.20;;;3.63;;
15159;SDS011;7680;48.800;9.680;2024-03-17T11:15:36;3.50;;;3.22;;
15159;SDS011;7680;48.800;9.680;2024-03-17T11:20:44;4.10;;;3.70;;
15159;SDS011;7680;48.800;9.680;2024-03-17T11:25:59;4.43;;;3.88;;
15159;SDS011;7680;48.800;9.680;2024-03-17T11:31:02;3.78;;;3.47;;
15159;SDS011;7680;48.800;9.680;2024-03-17T11:41:39;3.65;;;3.08;;
15159;SDS011;7680;48.800;9.680;2024-03-17T11:46:44;3.67;;;3.20;;
15159;SDS011;7680;48.800;9.680;2024-03-17T11:51:47;3.83;;;3.13;;
15159;SDS011;7680;48.800;9.680;2024-03-17T11:56:51;3.67;;;3.30;;
15159;SDS011;7680;48.800;9.680;2024-03-17T12:01:55;3.67;;;3.28;;
15159;SDS011;7680;48.800;9.680;2024-03-17T12:06:58;3.45;;;3.15;;
15159;SDS011;7680;48.800;9.680;2024-03-17T12:12:01;3.22;;;2.92;;
15159;SDS011;7680;48.800;9.680;2024-03-17T12:17:08;3.20;;;3.00;;
15159;SDS011;7680;48.800;9.680;2024-03-17T12:22:14;3.53;;;2.75;;
15159;SDS011;7680;48.800;9.680;2024-03-17T12:27:22;3.13;;;2.50;;
15159;SDS011;7680;48.800;9.680;2024-03-17T12:32:27;2.83;;;2.58;;
15159;SDS011;7680;48.800;9.680;2024-03-17T12:37:30;2.90;;;2.60;;
15159;SDS011;7680;48.800;9.680;2024-03-17T12:42:34;3.08;;;2.25;;
15159;SDS011;7680;48.800;9.680;2024-03-17T12:47:39;3.47;;;2.65;;
15159;SDS011;7680;48.800;9.680;2024-03-17T12:52:50;2.90;;;1.80;;
15159;SDS011;7680;48.800;9.680;2024-03-17T12:58:04;4.13;;;2.40;;
15159;SDS011;7680;48.800;9.680;2024-03-17T13:03:27;2.20;;;2.00;;
15159;SDS011;7680;48.800;9.680;2024-03-17T13:08:34;3.78;;;2.10;;
15159;SDS011;7680;48.800;9.680;2024-03-17T13:13:36;2.25;;;2.03;;
15159;SDS011;7680;48.800;9.680;2024-03-17T13:18:40;2.30;;;2.03;;
15159;SDS011;7680;48.800;9.680;2024-03-17T13:23:42;2.97;;;2.10;;
15159;SDS011;7680;48.800;9.680;2024-03-17T13:28:45;2.08;;;1.98;;
15159;SDS011;7680;48.800;9.680;2024-03-17T13:33:48;2.25;;;2.00;;
15159;SDS011;7680;48.800;9.680;2024-03-17T13:38:52;8.73;;;7.65;;
15159;SDS011;7680;48.800;9.680;2024-03-17T13:43:54;4.25;;;3.85;;
15159;SDS011;7680;48.800;9.680;2024-03-17T13:48:59;3.08;;;2.78;;
15159;SDS011;7680;48.800;9.680;2024-03-17T13:54:09;2.80;;;2.13;;
15159;SDS011;7680;48.800;9.680;2024-03-17T13:59:12;2.65;;;2.40;;
15159;SDS011;7680;48.800;9.680;2024-03-17T14:04:16;2.50;;;2.30;;
15159;SDS011;7680;48.800;9.680;2024-03-17T14:09:19;2.55;;;2.20;;
15159;SDS011;7680;48.800;9.680;2024-03-17T14:14:23;2.67;;;2.47;;
15159;SDS011;7680;48.800;9.680;2024-03-17T14:19:26;3.03;;;2.47;;
15159;SDS011;7680;48.800;9.680;2024-03-17T14:24:28;3.05;;;2.75;;
15159;SDS011;7680;48.800;9.680;2024-03-17T14:29:31;2.95;;;2.50;;
15159;SDS011;7680;48.800;9.680;2024-03-17T14:34:34;2.60;;;2.40;;
15159;SDS011;7680;48.800;9.680;2024-03-17T14:39:38;2.78;;;2.50;;
15159;SDS011;7680;48.800;9.680;2024-03-17T14:44:40;2.45;;;2.13;;
15159;SDS011;7680;48.800;9.680;2024-03-17T14:49:44;2.75;;;1.77;;
15159;SDS011;7680;48.800;9.680;2024-03-17T14:54:46;3.22;;;2.40;;
15159;SDS011;7680;48.800;9.680;2024-03-17T14:59:48;3.40;;;2.40;;
15159;SDS011;7680;48.800;9.680;2024-03-17T15:04:52;3.40;;;2.42;;
15159;SDS011;7680;48.800;9.680;2024-03-17T15:09:54;2.80;;;2.40;;
15159;SDS011;7680;48.800;9.680;2024-03-17T15:14:57;3.03;;;2.60;;
15159;SDS011;7680;48.800;9.680;2024-03-17T15:20:01;2.42;;;2.03;;
15159;SDS011;7680;48.800;9.680;2024-03-17T15:25:08;2.63;;;2.33;;
15159;SDS011;7680;48.800;9.680;2024-03-17T15:30:12;3.65;;;2.35;;
15159;SDS011;7680;48.800;9.680;2024-03-17T15:35:20;4.05;;;2.50;;
15159;SDS011;7680;48.800;9.680;2024-03-17T15:40:22;3.17;;;2.58;;
15159;SDS011;7680;48.800;9.680;2024-03-17T15:45:25;2.67;;;2.47;;
15159;SDS011;7680;48.800;9.680;2024-03-17T15:50:28;2.47;;;2.28;;
15159;SDS011;7680;48.800;9.680;2024-03-17T15:55:31;2.97;;;2.33;;
15159;SDS011;7680;48.800;9.680;2024-03-17T16:00:33;2.35;;;2.15;;
15159;SDS011;7680;48.800;9.680;2024-03-17T16:05:37;2.78;;;2.53;;
15159;SDS011;7680;48.800;9.680;2024-03-17T16:10:41;2.00;;;1.90;;
15159;SDS011;7680;48.800;9.680;2024-03-17T16:15:44;3.00;;;2.40;;
15159;SDS011;7680;48.800;9.680;2024-03-17T16:20:59;2.92;;;2.50;;
15159;SDS011;7680;48.800;9.680;2024-03-17T16:26:07;2.40;;;2.20;;
15159;SDS011;7680;48.800;9.680;2024-03-17T16:31:10;2.40;;;2.20;;
15159;SDS011;7680;48.800;9.680;2024-03-17T16:36:13;2.50;;;2.30;;
15159;SDS011;7680;48.800;9.680;2024-03-17T16:41:15;2.40;;;2.20;;
15159;SDS011;7680;48.800;9.680;2024-03-17T16:51:55;4.95;;;2.83;;
15159;SDS011;7680;48.800;9.680;2024-03-17T16:56:57;2.53;;;2.33;;
15159;SDS011;7680;48.800;9.680;2024-03-17T17:01:59;2.65;;;2.45;;
15159;SDS011;7680;48.800;9.680;2024-03-17T17:07:03;2.88;;;2.47;;
15159;SDS011;7680;48.800;9.680;2024-03-17T17:12:06;2.97;;;2.13;;
15159;SDS011;7680;48.800;9.680;2024-03-17T17:17:09;3.42;;;3.10;;
15159;SDS011;7680;48.800;9.680;2024-03-17T17:22:19;3.10;;;2.90;;
15159;SDS011;7680;48.800;9.680;2024-03-17T17:27:22;3.42;;;3.00;;
15159;SDS011;7680;48.800;9.680;2024-03-17T17:32:26;3.97;;;3.35;;
15159;SDS011;7680;48.800;9.680;2024-03-17T17:37:30;4.30;;;3.85;;
15159;SDS011;7680;48.800;9.680;2024-03-17T17:42:34;6.13;;;5.63;;
15159;SDS011;7680;48.800;9.680;2024-03-17T17:47:39;4.43;;;4.13;;
15159;SDS011;7680;48.800;9.680;2024-03-17T17:52:45;4.07;;;3.40;;
15159;SDS011;7680;48.800;9.680;2024-03-17T17:57:49;4.05;;;3.30;;
15159;SDS011;7680;48.800;9.680;2024-03-17T18:02:58;3.53;;;3.22;;
15159;SDS011;7680;48.800;9.680;2024-03-17T18:08:04;3.17;;;2.83;;
15159;SDS011;7680;48.800;9.680;2024-03-17T18:13:11;5.18;;;4.78;;
15159;SDS011;7680;48.800;9.680;2024-03-17T18:18:17;7.35;;;5.82;;
15159;SDS011;7680;48.800;9.680;2024-03-17T18:23:20;6.60;;;5.85;;
15159;SDS011;7680;48.800;9.680;2024-03-17T18:28:25;6.30;;;5.70;;
15159;SDS011;7680;48.800;9.680;2024-03-17T18:33:27;5.70;;;5.30;;
15159;SDS011;7680;48.800;9.680;2024-03-17T18:38:33;5.22;;;4.80;;
15159;SDS011;7680;48.800;9.680;2024-03-17T18:43:37;4.03;;;3.63;;
15159;SDS011;7680;48.800;9.680;2024-03-17T18:48:48;6.25;;;4.43;;
15159;SDS011;7680;48.800;9.680;2024-03-17T18:53:53;4.47;;;4.07;;
15159;SDS011;7680;48.800;9.680;2024-03-17T18:58:56;4.68;;;4.18;;
15159;SDS011;7680;48.800;9.680;2024-03-17T19:03:58;5.70;;;5.10;;
15159;SDS011;7680;48.800;9.680;2024-03-17T19:09:03;5.50;;;4.25;;
15159;SDS011;7680;48.800;9.680;2024-03-17T19:14:08;5.05;;;4.65;;
15159;SDS011;7680;48.800;9.680;2024-03-17T19:19:12;22.08;;;13.55;;
15159;SDS011;7680;48.800;9.680;2024-03-17T19:24:15;6.97;;;6.20;;
15159;SDS011;7680;48.800;9.680;2024-03-17T19:29:17;7.50;;;6.80;;
15159;SDS011;7680;48.800;9.680;2024-03-17T19:34:19;9.52;;;8.55;;
15159;SDS011;7680;48.800;9.680;2024-03-17T19:39:23;25.98;;;17.65;;
15159;SDS011;7680;48.800;9.680;2024-03-17T19:44:25;16.40;;;11.32;;
15159;SDS011;7680;48.800;9.680;2024-03-17T19:49:27;9.50;;;8.60;;
15159;SDS011;7680;48.800;9.680;2024-03-17T19:54:31;6.97;;;6.47;;
15159;SDS011;7680;48.800;9.680;2024-03-17T19:59:33;5.82;;;5.32;;
15159;SDS011;7680;48.800;9.680;2024-03-17T20:04:36;8.07;;;6.63;;
15159;SDS011;7680;48.800;9.680;2024-03-17T20:09:41;6.95;;;6.03;;
15159;SDS011;7680;48.800;9.680;2024-03-17T20:14:44;10.85;;;9.35;;
15159;SDS011;7680;48.800;9.680;2024-03-17T20:19:46;9.00;;;8.05;;
15159;SDS011;7680;48.800;9.680;2024-03-17T20:24:50;9.02;;;7.30;;
15159;SDS011;7680;48.800;9.680;2024-03-17T20:29:53;7.65;;;6.80;;
15159;SDS011;7680;48.800;9.680;2024-03-17T20:34:56;6.65;;;6.05;;
15159;SDS011;7680;48.800;9.680;2024-03-17T20:39:59;5.32;;;4.72;;
15159;SDS011;7680;48.800;9.680;2024-03-17T20:45:02;5.28;;;4.78;;
15159;SDS011;7680;48.800;9.680;2024-03-17T20:50:05;6.30;;;4.95;;
15159;SDS011;7680;48.800;9.680;2024-03-17T20:55:11;5.05;;;4.60;;
15159;SDS011;7680;48.800;9.680;2024-03-17T21:00:17;5.68;;;5.18;;
15159;SDS011;7680;48.800;9.680;2024-03-17T21:05:22;4.55;;;4.25;;
15159;SDS011;7680;48.800;9.680;2024-03-17T21:10:27;5.60;;;5.10;;
15159;SDS011;7680;48.800;9.680;2024-03-17T21:15:32;5.95;;;5.03;;
15159;SDS011;7680;48.800;9.680;2024-03-17T21:20:34;5.63;;;5.10;;
15159;SDS011;7680;48.800;9.680;2024-03-17T21:25:38;4.75;;;4.35;;
15159;SDS011;7680;48.800;9.680;2024-03-17T21:30:41;4.97;;;4.55;;
15159;SDS011;7680;48.800;9.680;2024-03-17T21:35:43;4.72;;;4.32;;
15159;SDS011;7680;48.800;9.680;2024-03-17T21:40:47;5.25;;;4.85;;
15159;SDS011;7680;48.800;9.680;2024-03-17T21:45:49;4.95;;;4.55;;
15159;SDS011;7680;48.800;9.680;2024-03-17T21:50:53;4.60;;;4.20;;
15159;SDS011;7680;48.800;9.680;2024-03-17T21:55:57;4.50;;;3.80;;
15159;SDS011;7680;48.800;9.680;2024-03-17T22:01:01;5.25;;;4.75;;
15159;SDS011;7680;48.800;9.680;2024-03-17T22:06:05;4.88;;;4.50;;
15159;SDS011;7680;48.800;9.680;2024-03-17T22:11:08;4.85;;;4.47;;
15159;SDS011;7680;48.800;9.680;2024-03-17T22:16:10;5.45;;;4.65;;
15159;SDS011;7680;48.800;9.680;2024-03-17T22:21:12;5.15;;;4.63;;
15159;SDS011;7680;48.800;9.680;2024-03-17T22:26:16;5.00;;;4.60;;
15159;SDS011;7680;48.800;9.680;2024-03-17T22:31:20;5.03;;;4.40;;
15159;SDS011;7680;48.800;9.680;2024-03-17T22:36:22;5.93;;;4.72;;
15159;SDS011;7680;48.800;9.680;2024-03-17T22:41:25;4.80;;;4.40;;
15159;SDS011;7680;48.800;9.680;2024-03-17T22:46:28;5.43;;;4.93;;
15159;SDS011;7680;48.800;9.680;2024-03-17T22:51:30;4.75;;;4.22;;
15159;SDS011;7680;48.800;9.680;2024-03-17T22:56:34;5.30;;;4.70;;
15159;SDS011;7680;48.800;9.680;2024-03-17T23:01:36;5.53;;;4.97;;
15159;SDS011;7680;48.800;9.680;2024-03-17T23:06:38;5.65;;;4.57;;
15159;SDS011;7680;48.800;9.680;2024-03-17T23:11:42;5.22;;;4.72;;
15159;SDS011;7680;48.800;9.680;2024-03-17T23:16:44;5.40;;;4.90;;
15159;SDS011;7680;48.800;9.680;2024-03-17T23:21:46;6.05;;;5.35;;
15159;SDS011;7680;48.800;9.680;2024-03-17T23:26:49;5.05;;;4.65;;
15159;SDS011;7680;48.800;9.680;2024-03-17T23:31:52;6.47;;;5.18;;
15159;SDS011;7680;48.800;9.680;2024-03-17T23:36:54;5.25;;;4.70;;
15159;SDS011;7680;48.800;9.680;2024-03-17T23:41:58;5.53;;;5.07;;
15159;SDS011;7680;48.800;9.680;2024-03-17T23:47:00;5.75;;;5.18;;
15159;SDS011;7680;48.800;9.680;2024-03-17T23:52:02;5.07;;;4.68;;
15159;SDS011;7680;48.800;9.680;2024-03-17T23:57:07;5.28;;;4.78;;
